Time;durP1;ratioP1;P1;durP2;ratioP2;P2;SDS_P1;SDS_P2;PMS_P1;PMS_P2;Temp;Humidity;BMP_temperature;BMP_pressure;BME280_temperature;BME280_humidity;BME280_pressure;Samples;Min_cycle;Max_cycle;Signal;HPM_P1;HPM_P2
2022/09/14 00:00:41;;;;;;;4.50;3.88;;;;;;;10.70;75.03;99049.50;4864154;29;20453;-78
2022/09/14 00:03:07;;;;;;;4.78;4.18;;;;;;;10.74;74.75;99063.28;4850192;29;20081;-79
2022/09/14 00:05:34;;;;;;;4.60;4.05;;;;;;;10.74;75.32;99057.25;4851781;29;20049;-77
2022/09/14 00:08:01;;;;;;;6.13;4.00;;;;;;;10.70;74.56;99056.47;4833975;29;20050;-79
2022/09/14 00:10:27;;;;;;;4.57;3.78;;;;;;;10.70;74.86;99049.50;4862850;29;20057;-77
2022/09/14 00:12:53;;;;;;;4.90;3.72;;;;;;;10.69;75.64;99046.94;4847595;29;20450;-76
2022/09/14 00:15:19;;;;;;;4.55;3.92;;;;;;;10.69;75.37;99047.78;4849463;29;20045;-78
2022/09/14 00:17:45;;;;;;;4.13;3.58;;;;;;;10.68;75.27;99042.63;4849671;29;20057;-78
2022/09/14 00:20:11;;;;;;;3.97;3.42;;;;;;;10.66;75.22;99044.41;4855314;29;20068;-79
2022/09/14 00:22:38;;;;;;;6.45;3.42;;;;;;;10.69;75.65;99044.34;4852132;29;20513;-78
2022/09/14 00:25:05;;;;;;;4.20;3.78;;;;;;;10.70;75.74;99040.84;4850852;29;20049;-78
2022/09/14 00:27:31;;;;;;;4.80;3.67;;;;;;;10.75;75.97;99049.38;4858577;29;20053;-75
2022/09/14 00:29:57;;;;;;;4.70;3.72;;;;;;;10.80;75.78;99044.09;4860324;29;20046;-76
2022/09/14 00:32:23;;;;;;;5.72;4.00;;;;;;;10.76;75.24;99040.69;4852486;29;20102;-78
2022/09/14 00:34:49;;;;;;;4.68;4.13;;;;;;;10.74;75.57;99039.88;4852060;29;20420;-78
2022/09/14 00:37:15;;;;;;;5.00;4.03;;;;;;;10.69;75.73;99036.53;4849989;29;20046;-79
2022/09/14 00:39:41;;;;;;;4.28;3.72;;;;;;;10.72;75.92;99035.59;4849678;29;20054;-78
2022/09/14 00:42:14;;;;;;;5.10;3.58;;;;;;;10.78;75.99;99033.72;4850220;29;20101;-77
2022/09/14 00:44:47;;;;;;;3.90;3.47;;;;;;;10.83;75.68;99039.69;4853826;29;20068;-78
2022/09/14 00:47:15;;;;;;;5.63;3.95;;;;;;;10.78;75.35;99023.31;4853367;29;20045;-77
2022/09/14 00:49:42;;;;;;;4.05;3.65;;;;;;;10.76;75.35;99032.88;4850737;29;20041;-76
2022/09/14 00:52:24;;;;;;;6.75;3.40;;;;;;;10.77;75.26;99034.59;4868208;29;20048;-79
2022/09/14 00:54:54;;;;;;;4.85;3.60;;;;;;;10.77;76.12;99029.41;4855538;29;20097;-80
2022/09/14 00:57:22;;;;;;;4.00;2.92;;;;;;;10.80;75.98;99021.53;4854130;29;20046;-79
2022/09/14 00:59:51;;;;;;;3.67;3.35;;;;;;;10.80;75.86;99020.69;4853406;29;20140;-76
2022/09/14 01:02:19;;;;;;;4.88;3.40;;;;;;;10.72;75.40;99030.41;4858292;29;20060;-77
2022/09/14 01:04:46;;;;;;;4.45;3.60;;;;;;;10.70;76.12;99020.88;4857944;29;20057;-77
2022/09/14 01:07:41;;;;;;;5.88;3.65;;;;;;;10.72;76.25;99018.22;4868878;29;20049;-77
2022/09/14 01:10:35;;;;;;;7.10;3.65;;;;;;;10.77;75.77;99012.94;4846142;29;20128;-77
2022/09/14 01:13:07;;;;;;;4.45;3.45;;;;;;;10.74;76.09;99013.84;4867007;29;20057;-77
2022/09/14 01:15:39;;;;;;;4.78;3.72;;;;;;;10.68;75.53;99008.81;4866770;29;20079;-79
2022/09/14 01:18:09;;;;;;;3.63;3.33;;;;;;;10.78;76.29;99006.84;4852091;29;20481;-78
2022/09/14 01:21:02;;;;;;;4.05;3.65;;;;;;;10.76;75.98;99009.47;4853647;29;20054;-78
2022/09/14 01:23:52;;;;;;;4.25;3.50;;;;;;;10.76;76.53;99006.88;4853374;29;20144;-77
2022/09/14 01:26:19;;;;;;;5.15;4.10;;;;;;;10.77;76.34;99011.19;4854052;29;20101;-75
2022/09/14 01:28:51;;;;;;;5.15;3.47;;;;;;;10.70;75.69;99007.88;4851923;29;20592;-78
2022/09/14 01:31:32;;;;;;;6.65;4.10;;;;;;;10.62;76.26;98988.94;4850477;29;20037;-77
2022/09/14 01:34:27;;;;;;;4.47;3.92;;;;;;;10.67;76.70;99007.09;4852960;29;20053;-78
2022/09/14 01:37:00;;;;;;;5.50;4.00;;;;;;;10.63;76.30;98998.47;4855012;29;21646;-79
2022/09/14 01:39:30;;;;;;;5.38;3.80;;;;;;;10.58;76.21;98996.88;4851372;29;20100;-75
2022/09/14 01:42:00;;;;;;;4.95;3.95;;;;;;;10.51;76.47;98983.16;4852688;29;20098;-76
2022/09/14 01:44:39;;;;;;;4.97;4.43;;;;;;;10.56;76.49;98986.50;4858790;29;20052;-75
2022/09/14 01:47:20;;;;;;;5.95;4.28;;;;;;;10.61;76.44;99000.25;4849274;29;20105;-78
2022/09/14 01:49:51;;;;;;;5.63;4.38;;;;;;;10.53;76.49;98986.56;4854812;29;20052;-79
2022/09/14 01:52:24;;;;;;;8.27;4.70;;;;;;;10.59;77.02;98990.78;4853101;29;20165;-79
2022/09/14 01:54:56;;;;;;;5.45;4.35;;;;;;;10.59;76.64;98988.19;4852322;29;20077;-76
2022/09/14 01:57:37;;;;;;;5.90;4.50;;;;;;;10.48;77.30;98976.25;4868090;29;20053;-77
2022/09/14 02:00:10;;;;;;;7.05;5.15;;;;;;;10.53;77.13;98987.41;4853601;29;20045;-79
2022/09/14 02:02:38;;;;;;;7.05;5.53;;;;;;;10.47;77.35;98974.56;4867674;29;20041;-76
2022/09/14 02:05:10;;;;;;;6.45;5.03;;;;;;;10.55;77.10;98982.19;4853478;29;20114;-76
2022/09/14 02:07:36;;;;;;;7.93;5.20;;;;;;;10.52;77.44;98979.66;4850877;29;20046;-78
2022/09/14 02:10:05;;;;;;;9.05;5.70;;;;;;;10.44;77.65;98966.81;4868582;29;20038;-76
2022/09/14 02:12:32;;;;;;;9.38;5.30;;;;;;;10.52;78.09;98969.25;4881153;29;20037;-75
2022/09/14 02:14:58;;;;;;;8.23;5.38;;;;;;;10.59;78.14;98964.75;4879506;29;20117;-75
2022/09/14 02:17:27;;;;;;;8.15;5.90;;;;;;;10.50;77.83;98953.66;4865606;29;20046;-76
2022/09/14 02:19:59;;;;;;;8.40;6.07;;;;;;;10.55;77.23;98964.00;4860253;29;20633;-75
2022/09/14 02:22:27;;;;;;;11.43;6.40;;;;;;;10.60;78.36;98959.50;4851136;29;20143;-78
2022/09/14 02:24:54;;;;;;;10.13;6.82;;;;;;;10.66;77.70;98955.94;4852717;29;21325;-78
2022/09/14 02:27:20;;;;;;;8.18;6.30;;;;;;;10.62;78.05;98957.72;4851719;29;20143;-78
2022/09/14 02:29:46;;;;;;;10.95;7.75;;;;;;;10.65;77.56;98956.84;4850159;29;20490;-75
2022/09/14 02:32:38;;;;;;;10.95;7.50;;;;;;;10.65;77.75;98965.47;4852221;29;20906;-78
2022/09/14 02:35:18;;;;;;;12.02;7.05;;;;;;;10.64;78.31;98971.56;4851790;29;20052;-76
2022/09/14 02:38:05;;;;;;;10.32;7.65;;;;;;;10.59;77.86;98964.75;4849930;29;20139;-76
2022/09/14 02:40:33;;;;;;;15.07;7.95;;;;;;;10.61;78.10;98963.00;4851512;29;20395;-78
2022/09/14 02:42:59;;;;;;;14.18;8.52;;;;;;;10.56;77.97;98963.09;4853048;29;20056;-78
2022/09/14 02:45:31;;;;;;;13.68;8.63;;;;;;;10.49;78.37;98953.72;4852963;29;20041;-78
2022/09/14 02:48:12;;;;;;;13.68;9.50;;;;;;;10.48;78.72;98946.78;4853350;29;20070;-78
2022/09/14 02:50:56;;;;;;;12.73;8.23;;;;;;;10.62;78.27;98964.69;4866466;29;20592;-77
2022/09/14 02:53:25;;;;;;;12.30;8.73;;;;;;;10.64;79.03;98965.53;4859282;29;20140;-78
2022/09/14 02:56:00;;;;;;;12.82;8.85;;;;;;;10.59;78.57;98950.03;4858941;29;20052;-77
2022/09/14 02:58:34;;;;;;;14.82;8.55;;;;;;;10.69;78.79;98955.88;4865860;29;20053;-75
2022/09/14 03:01:01;;;;;;;14.30;8.85;;;;;;;10.73;78.89;98949.69;4861680;29;20909;-77
2022/09/14 03:03:27;;;;;;;13.50;9.02;;;;;;;10.76;78.75;98941.81;4847950;29;20076;-77
2022/09/14 03:05:55;;;;;;;17.55;9.50;;;;;;;10.77;78.66;98946.13;4866019;29;20423;-77
2022/09/14 03:08:21;;;;;;;17.30;9.35;;;;;;;10.73;78.66;98931.47;4853599;29;20094;-80
2022/09/14 03:10:47;;;;;;;15.75;9.73;;;;;;;10.68;78.19;98925.53;4849582;29;20045;-78
2022/09/14 03:13:12;;;;;;;16.10;10.38;;;;;;;10.70;78.63;98927.22;4838804;29;20087;-77
2022/09/14 03:15:40;;;;;;;14.00;9.60;;;;;;;10.71;78.88;98930.66;4851206;29;20080;-80
2022/09/14 03:18:07;;;;;;;15.55;9.95;;;;;;;10.81;79.13;98931.31;4838145;29;20370;-79
2022/09/14 03:20:34;;;;;;;13.30;9.43;;;;;;;10.84;79.27;98921.69;4858888;29;20045;-80
2022/09/14 03:23:02;;;;;;;14.57;9.18;;;;;;;10.84;78.29;98929.50;4856668;29;20048;-76
2022/09/14 03:25:28;;;;;;;16.85;10.00;;;;;;;10.86;78.55;98929.44;4854457;29;20439;-78
2022/09/14 03:27:57;;;;;;;17.33;9.40;;;;;;;10.83;78.47;98925.16;4861585;29;20052;-76
2022/09/14 03:30:23;;;;;;;13.43;9.63;;;;;;;10.86;78.69;98921.63;4875706;29;20187;-77
2022/09/14 03:32:49;;;;;;;12.93;9.40;;;;;;;10.92;78.59;98923.25;4851380;29;20056;-80
2022/09/14 03:35:16;;;;;;;12.63;8.65;;;;;;;10.91;78.64;98931.94;4848811;29;20054;-78
2022/09/14 03:37:43;;;;;;;12.65;9.15;;;;;;;10.82;78.27;98923.47;4850905;29;20050;-75
2022/09/14 03:40:11;;;;;;;12.60;8.70;;;;;;;10.89;78.97;98929.38;4866642;29;20496;-77
2022/09/14 03:42:46;;;;;;;12.88;8.93;;;;;;;10.92;78.71;98928.47;4851845;29;20405;-79
2022/09/14 03:45:13;;;;;;;13.15;8.68;;;;;;;10.92;78.98;98926.69;4850774;29;20117;-76
2022/09/14 03:47:39;;;;;;;13.40;8.85;;;;;;;10.97;79.24;98926.56;4851872;29;20506;-77
2022/09/14 03:50:07;;;;;;;11.77;8.63;;;;;;;11.00;79.05;98921.28;4848533;29;20041;-79
2022/09/14 03:52:35;;;;;;;12.88;9.05;;;;;;;11.03;78.61;98923.81;4848763;29;20160;-77
2022/09/14 03:55:01;;;;;;;14.93;10.02;;;;;;;11.03;78.54;98928.19;4851319;29;20070;-79
2022/09/14 03:57:27;;;;;;;12.55;9.10;;;;;;;10.99;78.16;98909.16;4851074;29;20080;-76
2022/09/14 03:59:55;;;;;;;13.15;9.88;;;;;;;11.07;78.70;98922.88;4837289;29;20072;-76
2022/09/14 04:02:21;;;;;;;15.52;10.18;;;;;;;11.08;78.59;98921.09;4869980;29;20029;-77
2022/09/14 04:04:47;;;;;;;13.93;9.93;;;;;;;11.07;78.50;98909.84;4863571;29;20061;-79
2022/09/14 04:07:14;;;;;;;15.20;10.13;;;;;;;11.09;78.64;98921.09;4849842;29;20045;-78
2022/09/14 04:09:41;;;;;;;12.23;9.05;;;;;;;11.06;79.09;98892.53;4850015;29;20076;-82
2022/09/14 04:12:07;;;;;;;12.50;9.02;;;;;;;11.25;78.19;98912.88;4838783;29;20041;-78
2022/09/14 04:14:33;;;;;;;10.73;8.00;;;;;;;11.25;79.04;98911.13;4841210;29;20046;-79
2022/09/14 04:17:00;;;;;;;11.00;8.77;;;;;;;11.18;78.81;98901.75;4841509;29;20038;-78
2022/09/14 04:19:26;;;;;;;11.07;8.18;;;;;;;11.34;78.85;98912.66;4857319;29;20053;-78
2022/09/14 04:21:51;;;;;;;11.88;8.32;;;;;;;11.40;78.04;98912.47;4861673;29;20557;-78
2022/09/14 04:24:18;;;;;;;12.05;9.30;;;;;;;11.33;78.02;98900.53;4859173;29;20137;-77
2022/09/14 04:26:44;;;;;;;14.40;9.52;;;;;;;11.38;78.46;98898.63;4854368;29;20046;-80
2022/09/14 04:29:11;;;;;;;11.43;9.30;;;;;;;11.46;78.36;98906.25;4870240;29;20528;-83
2022/09/14 04:31:38;;;;;;;12.20;9.77;;;;;;;11.41;78.20;98901.16;4861342;29;20074;-79
2022/09/14 04:34:04;;;;;;;13.23;10.05;;;;;;;11.46;78.57;98911.47;4867984;29;20053;-79
2022/09/14 04:36:30;;;;;;;12.93;9.65;;;;;;;11.36;78.10;98897.84;4851173;29;20098;-79
2022/09/14 04:38:59;;;;;;;15.02;10.40;;;;;;;11.35;77.82;98908.28;4860977;29;20073;-78
2022/09/14 04:41:26;;;;;;;12.90;10.65;;;;;;;11.39;78.56;98907.31;4852830;29;20510;-77
2022/09/14 04:43:54;;;;;;;18.48;14.70;;;;;;;11.52;77.63;98915.66;4855110;29;20148;-79
2022/09/14 04:46:22;;;;;;;21.20;14.82;;;;;;;11.52;77.75;98907.84;4853718;29;20049;-80
2022/09/14 04:48:49;;;;;;;18.60;14.23;;;;;;;11.55;77.83;98923.41;4852233;29;20052;-80
2022/09/14 04:51:17;;;;;;;17.33;14.25;;;;;;;11.54;78.20;98917.31;4839982;29;20041;-80
2022/09/14 04:53:46;;;;;;;19.77;15.70;;;;;;;11.67;78.48;98928.25;4855272;29;20061;-81
2022/09/14 04:56:13;;;;;;;18.13;15.07;;;;;;;11.64;77.72;98920.53;4851109;29;20513;-78
2022/09/14 04:58:45;;;;;;;19.52;15.30;;;;;;;11.55;78.01;98899.94;4853425;29;20056;-81
2022/09/14 05:01:13;;;;;;;;;;;;;;;11.71;77.45;98932.50;4854746;29;20041;-81
2022/09/14 05:03:40;;;;;;;17.45;13.02;;;;;;;11.59;77.33;98919.78;4857505;29;19924;-79
2022/09/14 05:06:22;;;;;;;14.50;11.18;;;;;;;11.60;77.53;98930.19;4878884;29;20582;-79
2022/09/14 05:08:48;;;;;;;13.40;10.75;;;;;;;11.58;77.92;98918.09;4877865;29;20509;-80
2022/09/14 05:11:21;;;;;;;11.73;9.65;;;;;;;11.65;77.17;98921.38;4855693;29;20049;-79
2022/09/14 05:13:47;;;;;;;12.18;9.10;;;;;;;11.68;76.95;98926.53;4855565;29;20119;-79
2022/09/14 05:16:17;;;;;;;11.82;8.90;;;;;;;11.70;77.47;98916.88;4863532;29;20751;-78
2022/09/14 05:18:45;;;;;;;10.95;8.25;;;;;;;11.65;76.98;98909.19;4859926;29;20102;-79
2022/09/14 05:21:14;;;;;;;9.40;7.60;;;;;;;11.71;77.44;98927.28;4853435;29;20041;-80
2022/09/14 05:23:40;;;;;;;10.77;7.80;;;;;;;11.72;77.21;98936.81;4855673;29;20041;-80
2022/09/14 05:26:08;;;;;;;8.07;6.63;;;;;;;11.67;77.21;98917.84;4852668;29;20101;-80
2022/09/14 05:28:35;;;;;;;10.15;8.10;;;;;;;11.29;76.97;98857.22;4828138;29;20579;-83
2022/09/14 05:31:09;;;;;;;10.02;7.57;;;;;;;11.74;77.25;98927.19;4868145;29;20053;-79
2022/09/14 05:33:36;;;;;;;10.20;7.43;;;;;;;11.81;76.80;98937.44;4862610;29;20060;-81
2022/09/14 05:36:04;;;;;;;8.43;7.20;;;;;;;11.84;77.06;98929.53;4877290;29;20117;-79
2022/09/14 05:38:32;;;;;;;9.85;7.82;;;;;;;11.79;76.87;98926.22;4866432;29;20045;-82
2022/09/14 05:41:01;;;;;;;9.68;7.47;;;;;;;11.78;76.88;98916.69;4843518;29;20558;-80
2022/09/14 05:43:28;;;;;;;8.82;7.07;;;;;;;11.85;76.83;98942.53;4862985;29;20046;-78
2022/09/14 05:46:01;;;;;;;8.73;6.70;;;;;;;11.82;77.06;98913.94;4877242;29;20049;-78
2022/09/14 05:48:30;;;;;;;8.68;6.65;;;;;;;12.04;77.08;98924.63;4858474;29;20038;-80
2022/09/14 05:51:15;;;;;;;8.50;6.45;;;;;;;11.86;77.02;98870.41;4870601;29;20046;-88
2022/09/14 05:53:49;;;;;;;7.32;6.40;;;;;;;12.23;76.15;98923.25;4844415;29;20050;-80
2022/09/14 05:56:16;;;;;;;9.70;6.18;;;;;;;12.10;76.34;98904.50;4834346;29;20421;-79
2022/09/14 05:58:42;;;;;;;8.95;6.80;;;;;;;12.21;76.00;98923.31;4862606;29;20131;-82
2022/09/14 06:01:23;;;;;;;8.02;6.57;;;;;;;12.22;75.89;98919.81;4855335;29;20094;-78
2022/09/14 06:03:52;;;;;;;8.45;6.30;;;;;;;12.14;75.94;98906.97;4843696;29;20081;-79
2022/09/14 06:06:22;;;;;;;7.47;6.40;;;;;;;12.03;75.27;98899.47;4835088;29;20045;-81
2022/09/14 06:08:51;;;;;;;9.40;7.07;;;;;;;12.13;76.06;98927.88;4860936;29;20474;-78
2022/09/14 06:11:21;;;;;;;9.18;7.47;;;;;;;12.17;76.23;98919.09;4860097;29;20401;-82
2022/09/14 06:13:48;;;;;;;9.82;7.93;;;;;;;12.22;76.24;98896.34;4860848;29;20041;-79
2022/09/14 06:16:17;;;;;;;9.30;7.38;;;;;;;12.33;75.93;98917.72;4861630;29;20041;-83
2022/09/14 06:18:45;;;;;;;10.15;7.07;;;;;;;12.31;75.97;98916.91;4860674;29;20041;-80
2022/09/14 06:21:14;;;;;;;9.70;7.32;;;;;;;12.32;75.42;98908.19;4861215;29;20074;-79
2022/09/14 06:23:40;;;;;;;11.82;8.35;;;;;;;12.42;76.09;98907.91;4862062;29;20495;-80
2022/09/14 06:26:07;;;;;;;15.80;10.02;;;;;;;12.37;75.26;98896.75;4850148;29;20510;-81
2022/09/14 06:28:34;;;;;;;12.23;9.57;;;;;;;12.39;74.91;98903.63;4854521;29;20049;-79
2022/09/14 06:31:03;;;;;;;12.95;9.40;;;;;;;12.44;75.08;98912.19;4855271;29;20113;-81
2022/09/14 06:33:30;;;;;;;14.82;11.50;;;;;;;12.37;75.54;98892.38;4858816;29;20053;-80
2022/09/14 06:36:08;;;;;;;14.98;11.63;;;;;;;12.33;74.88;98889.03;4844343;29;20048;-79
2022/09/14 06:38:34;;;;;;;15.93;10.20;;;;;;;12.41;75.11;98901.00;4845301;29;20090;-80
2022/09/14 06:41:03;;;;;;;16.85;11.23;;;;;;;12.45;75.45;98893.00;4864137;29;20049;-79
2022/09/14 06:43:31;;;;;;;14.85;11.27;;;;;;;12.56;74.69;98902.28;4872052;29;20045;-80
2022/09/14 06:46:41;;;;;;;16.75;10.57;;;;;;;12.47;75.17;98895.56;4853799;29;20069;-79
2022/09/14 06:49:11;;;;;;;15.95;11.13;;;;;;;12.34;74.42;98895.94;4848662;29;20045;-78
2022/09/14 06:51:40;;;;;;;16.23;11.40;;;;;;;12.32;74.56;98902.97;4861335;29;20046;-78
2022/09/14 06:54:07;;;;;;;15.65;11.18;;;;;;;12.18;74.14;98886.88;4881467;29;20041;-80
2022/09/14 06:56:36;;;;;;;15.32;10.30;;;;;;;12.29;74.71;98902.22;4872179;29;20051;-79
2022/09/14 06:59:03;;;;;;;12.75;9.88;;;;;;;12.37;75.95;98899.38;4863759;29;20034;-78
2022/09/14 07:01:33;;;;;;;18.15;12.40;;;;;;;12.48;74.80;98913.78;4865107;29;20097;-79
2022/09/14 07:04:00;;;;;;;15.93;11.50;;;;;;;12.43;74.86;98907.84;4870507;29;20065;-80
2022/09/14 07:06:29;;;;;;;17.52;11.60;;;;;;;12.36;75.40;98893.28;4864612;29;20058;-80
2022/09/14 07:08:55;;;;;;;16.75;11.75;;;;;;;12.19;74.80;98870.34;4850626;29;20060;-78
2022/09/14 07:11:28;;;;;;;18.70;11.93;;;;;;;12.34;75.02;98893.34;4851918;29;20053;-76
2022/09/14 07:13:57;;;;;;;18.10;12.00;;;;;;;12.44;75.77;98900.91;4837567;29;20104;-76
2022/09/14 07:16:25;;;;;;;13.60;9.80;;;;;;;12.48;74.73;98894.66;4865432;29;20050;-75
2022/09/14 07:18:55;;;;;;;16.90;10.73;;;;;;;12.46;75.26;98899.94;4850971;29;20120;-78
2022/09/14 07:21:22;;;;;;;16.80;11.82;;;;;;;12.31;75.26;98885.59;4851493;29;20124;-78
2022/09/14 07:23:48;;;;;;;17.40;11.60;;;;;;;12.38;75.68;98881.06;4834759;29;20052;-76
2022/09/14 07:26:17;;;;;;;18.42;11.85;;;;;;;12.49;75.96;98885.94;4853999;29;20080;-78
2022/09/14 07:28:46;;;;;;;23.85;12.93;;;;;;;12.55;74.93;98884.91;4850116;29;20498;-79
2022/09/14 07:31:26;;;;;;;16.85;11.90;;;;;;;12.59;75.70;98878.66;4855523;29;20517;-79
2022/09/14 07:33:57;;;;;;;18.33;11.80;;;;;;;12.57;75.73;98883.09;4855880;29;20034;-76
2022/09/14 07:36:24;;;;;;;18.77;12.43;;;;;;;12.46;75.87;98857.34;4865289;29;20041;-80
2022/09/14 07:38:51;;;;;;;20.05;13.15;;;;;;;12.77;75.77;98874.63;4870445;29;20547;-76
2022/09/14 07:41:19;;;;;;;18.88;12.18;;;;;;;12.91;76.05;98872.41;4866916;29;20042;-77
2022/09/14 07:43:48;;;;;;;18.83;12.35;;;;;;;12.95;76.38;98860.13;4841538;29;20050;-80
2022/09/14 07:46:14;;;;;;;17.27;11.85;;;;;;;13.01;75.76;98856.44;4831457;29;21080;-77
2022/09/14 07:48:40;;;;;;;17.13;12.38;;;;;;;13.37;76.22;98875.22;4864064;29;20038;-75
2022/09/14 07:51:09;;;;;;;15.75;11.25;;;;;;;13.68;76.46;98861.06;4849075;29;20140;-78
2022/09/14 07:53:44;;;;;;;12.93;9.18;;;;;;;13.87;75.19;98873.47;4851775;29;20050;-79
2022/09/14 07:56:12;;;;;;;14.43;10.07;;;;;;;13.80;74.80;98874.59;4828944;29;20052;-78
2022/09/14 07:58:38;;;;;;;10.95;8.77;;;;;;;13.73;74.93;98868.75;4849506;29;20045;-79
2022/09/14 08:01:10;;;;;;;15.05;9.57;;;;;;;13.76;74.86;98871.25;4848587;29;20037;-76
2022/09/14 08:03:38;;;;;;;11.48;8.80;;;;;;;13.78;74.62;98872.06;4847400;29;20148;-77
2022/09/14 08:06:09;;;;;;;11.15;8.32;;;;;;;13.73;74.27;98853.06;4852903;29;20050;-78
2022/09/14 08:08:38;;;;;;;13.48;9.27;;;;;;;13.79;74.59;98863.28;4862716;29;20055;-77
2022/09/14 08:11:31;;;;;;;11.38;8.75;;;;;;;13.92;74.62;98857.59;4849583;29;20052;-78
2022/09/14 08:14:03;;;;;;;10.38;7.80;;;;;;;13.82;73.82;98852.72;4847735;29;20048;-79
2022/09/14 08:16:31;;;;;;;11.52;8.60;;;;;;;13.74;74.01;98857.38;4852146;29;20419;-78
2022/09/14 08:19:04;;;;;;;14.05;9.40;;;;;;;13.74;73.77;98857.38;4852672;29;20077;-79
2022/09/14 08:21:31;;;;;;;11.45;7.88;;;;;;;13.67;74.33;98854.16;4838095;29;20048;-78
2022/09/14 08:24:00;;;;;;;10.98;8.38;;;;;;;13.76;73.75;98852.09;4851961;29;20371;-79
2022/09/14 08:26:26;;;;;;;12.27;8.02;;;;;;;13.95;73.89;98852.28;4851487;29;20514;-78
2022/09/14 08:28:54;;;;;;;11.20;8.52;;;;;;;13.95;73.34;98852.28;4851001;29;20046;-76
2022/09/14 08:31:24;;;;;;;10.63;8.20;;;;;;;13.91;73.49;98850.69;4852392;29;20046;-79
2022/09/14 08:33:53;;;;;;;10.23;7.32;;;;;;;13.81;73.25;98845.78;4849817;29;20049;-77
2022/09/14 08:36:21;;;;;;;10.38;7.85;;;;;;;13.76;73.53;98837.28;4863939;29;20144;-75
2022/09/14 08:38:47;;;;;;;9.15;7.28;;;;;;;13.80;73.12;98845.84;4848196;29;20049;-77
2022/09/14 08:41:17;;;;;;;10.73;7.85;;;;;;;13.77;73.60;98841.59;4851615;29;20041;-75
2022/09/14 08:43:43;;;;;;;9.05;6.75;;;;;;;13.75;73.38;98838.19;4847975;29;20053;-77
2022/09/14 08:46:22;;;;;;;9.02;7.30;;;;;;;13.78;73.28;98840.69;4848109;29;20052;-77
2022/09/14 08:48:48;;;;;;;8.32;5.88;;;;;;;13.76;73.56;98832.03;4849213;29;20037;-79
2022/09/14 08:51:16;;;;;;;10.88;7.93;;;;;;;13.80;73.31;98841.44;4848780;29;20585;-78
2022/09/14 08:53:44;;;;;;;8.10;6.32;;;;;;;13.92;73.46;98850.59;4850139;29;20126;-76
2022/09/14 08:56:20;;;;;;;9.02;6.28;;;;;;;14.05;73.11;98845.75;4850381;29;20049;-77
2022/09/14 08:59:08;;;;;;;8.90;6.25;;;;;;;14.08;73.07;98847.44;4851164;29;20049;-77
2022/09/14 09:01:51;;;;;;;7.20;5.35;;;;;;;14.20;72.81;98838.25;4849516;29;20178;-78
2022/09/14 09:04:38;;;;;;;5.78;4.43;;;;;;;14.12;72.18;98843.78;4847784;29;20114;-78
2022/09/14 09:07:23;;;;;;;4.68;4.05;;;;;;;14.07;72.46;98846.56;4830904;29;20053;-78
2022/09/14 09:09:53;;;;;;;6.85;4.85;;;;;;;14.09;72.35;98838.66;4851925;29;20045;-77
2022/09/14 09:12:34;;;;;;;9.55;6.00;;;;;;;14.15;71.92;98835.78;4849030;29;20049;-79
2022/09/14 09:15:05;;;;;;;11.50;8.85;;;;;;;14.08;71.92;98837.78;4849514;29;20176;-77
2022/09/14 09:17:42;;;;;;;17.10;12.25;;;;;;;13.93;71.47;98839.22;4851262;29;20053;-80
2022/09/14 09:20:35;;;;;;;11.45;9.48;;;;;;;13.71;71.97;98828.75;4855777;29;20042;-75
2022/09/14 09:23:13;;;;;;;12.00;8.32;;;;;;;13.81;72.35;98835.31;4862273;29;20086;-78
2022/09/14 09:25:51;;;;;;;9.55;7.35;;;;;;;13.86;71.67;98838.63;4856669;29;20038;-81
2022/09/14 09:28:20;;;;;;;11.27;8.70;;;;;;;13.83;72.02;98828.28;4861002;29;20056;-83
2022/09/14 09:30:47;;;;;;;10.25;8.10;;;;;;;13.92;72.25;98841.91;4855075;29;20528;-77
2022/09/14 09:33:21;;;;;;;9.15;7.07;;;;;;;13.94;72.55;98835.72;4870032;29;20101;-79
2022/09/14 09:36:20;;;;;;;10.93;7.30;;;;;;;13.78;71.59;98842.44;4866970;29;20045;-79
2022/09/14 09:38:46;;;;;;;9.63;7.18;;;;;;;13.58;72.02;98837.94;4865092;29;20144;-78
2022/09/14 09:41:23;;;;;;;9.52;7.45;;;;;;;13.45;72.05;98827.94;4855742;29;20130;-79
2022/09/14 09:44:01;;;;;;;12.15;8.10;;;;;;;13.39;72.29;98818.53;4857833;29;20050;-80
2022/09/14 09:46:31;;;;;;;11.07;8.00;;;;;;;13.46;72.78;98841.88;4840195;29;20052;-79
2022/09/14 09:48:58;;;;;;;8.80;6.65;;;;;;;13.48;72.86;98838.28;4873153;29;20038;-78
2022/09/14 09:51:26;;;;;;;10.40;8.07;;;;;;;13.57;73.28;98842.31;4884187;29;20119;-77
2022/09/14 09:53:58;;;;;;;8.98;6.72;;;;;;;13.64;73.27;98837.72;4883074;29;20545;-78
2022/09/14 09:56:35;;;;;;;8.30;6.28;;;;;;;13.56;72.81;98830.16;4876490;29;20064;-79
2022/09/14 09:59:01;;;;;;;10.60;6.63;;;;;;;13.60;73.10;98836.97;4860239;29;20418;-80
2022/09/14 10:01:34;;;;;;;8.60;5.53;;;;;;;13.47;72.29;98828.72;4857776;29;20409;-78
2022/09/14 10:04:16;;;;;;;7.75;6.22;;;;;;;13.45;72.53;98834.94;4860480;29;20187;-78
2022/09/14 10:06:50;;;;;;;8.48;6.18;;;;;;;13.48;73.26;98827.81;4860303;29;20046;-78
2022/09/14 10:09:22;;;;;;;8.35;5.63;;;;;;;13.56;73.02;98824.94;4861363;29;20148;-80
2022/09/14 10:12:04;;;;;;;5.53;4.40;;;;;;;13.54;72.48;98835.44;4860401;29;20048;-79
2022/09/14 10:14:32;;;;;;;;;;;;;;;13.60;73.16;98841.34;4876616;29;20424;-80
2022/09/14 10:17:17;;;;;;;5.05;4.40;;;;;;;13.72;73.08;98840.91;4862249;29;19920;-79
2022/09/14 10:19:48;;;;;;;5.72;4.82;;;;;;;13.74;72.71;98835.59;4858554;29;20188;-80
2022/09/14 10:22:33;;;;;;;5.80;4.90;;;;;;;13.82;72.91;98831.78;4860231;29;20645;-73
2022/09/14 10:25:12;;;;;;;6.78;4.28;;;;;;;13.81;72.71;98837.94;4859747;29;20045;-75
2022/09/14 10:27:44;;;;;;;6.22;4.35;;;;;;;13.81;72.44;98830.09;4860713;29;20127;-79
2022/09/14 10:30:22;;;;;;;5.55;4.47;;;;;;;13.83;72.62;98822.19;4856716;29;20042;-78
2022/09/14 10:33:01;;;;;;;5.60;4.47;;;;;;;13.84;72.21;98823.91;4852077;29;20052;-75
2022/09/14 10:35:55;;;;;;;5.70;4.78;;;;;;;13.82;72.57;98820.50;4849107;29;20597;-78
2022/09/14 10:38:42;;;;;;;6.63;4.82;;;;;;;13.95;72.79;98834.78;4856216;29;20045;-76
2022/09/14 10:41:30;;;;;;;7.53;4.72;;;;;;;14.08;72.54;98831.72;4855907;29;20048;-78
2022/09/14 10:44:18;;;;;;;7.07;4.97;;;;;;;14.22;72.27;98831.19;4861154;29;20311;-76
2022/09/14 10:47:02;;;;;;;5.30;4.28;;;;;;;14.19;72.34;98828.69;4843611;29;20038;-77
2022/09/14 10:49:36;;;;;;;5.75;4.18;;;;;;;14.18;71.61;98832.22;4837974;29;20136;-75
2022/09/14 10:52:34;;;;;;;4.85;4.07;;;;;;;14.18;72.30;98835.69;4871376;29;20053;-75
2022/09/14 10:55:12;;;;;;;4.95;4.00;;;;;;;14.07;71.73;98820.41;4865026;29;20425;-77
2022/09/14 10:57:59;;;;;;;4.50;3.70;;;;;;;14.10;71.81;98827.28;4875383;29;20056;-79
2022/09/14 11:00:30;;;;;;;5.60;4.22;;;;;;;14.13;71.73;98825.41;4841967;29;20074;-76
2022/09/14 11:03:03;;;;;;;6.30;3.28;;;;;;;14.16;71.13;98824.41;4876210;29;20063;-79
2022/09/14 11:05:37;;;;;;;4.57;3.40;;;;;;;14.36;71.37;98828.88;4860955;29;20374;-80
2022/09/14 11:08:29;;;;;;;4.55;3.17;;;;;;;14.43;71.03;98811.16;4861310;29;20048;-77
2022/09/14 11:11:13;;;;;;;3.60;3.10;;;;;;;14.56;70.51;98830.69;4854982;29;20061;-76
2022/09/14 11:14:09;;;;;;;5.18;2.85;;;;;;;14.50;70.93;98806.50;4861164;29;20049;-77
2022/09/14 11:16:54;;;;;;;3.97;3.10;;;;;;;14.65;70.31;98837.31;4831608;29;20522;-78
2022/09/14 11:19:26;;;;;;;4.22;2.88;;;;;;;14.50;69.81;98832.69;4867626;29;20049;-77
2022/09/14 11:21:59;;;;;;;4.70;2.80;;;;;;;14.46;70.29;98830.19;4867188;29;20131;-79
2022/09/14 11:24:43;;;;;;;3.85;3.05;;;;;;;14.46;70.17;98829.34;4878226;29;20045;-78
2022/09/14 11:27:20;;;;;;;3.10;2.72;;;;;;;14.45;69.40;98831.09;4863427;29;20156;-79
2022/09/14 11:29:54;;;;;;;5.57;2.83;;;;;;;14.30;69.71;98822.13;4841278;29;20152;-77
2022/09/14 11:32:35;;;;;;;3.38;2.63;;;;;;;14.24;69.39;98817.13;4872732;29;20049;-78
2022/09/14 11:35:12;;;;;;;3.30;2.85;;;;;;;14.14;69.16;98826.22;4860671;29;20420;-77
2022/09/14 11:37:47;;;;;;;3.67;2.60;;;;;;;14.10;69.50;98828.13;4859881;29;20045;-77
2022/09/14 11:40:23;;;;;;;4.68;2.70;;;;;;;14.10;69.48;98822.06;4864704;29;20045;-77
2022/09/14 11:42:55;;;;;;;3.53;2.92;;;;;;;14.20;69.49;98822.56;4854788;29;20086;-78
2022/09/14 11:45:27;;;;;;;3.78;2.70;;;;;;;14.33;69.79;98818.53;4868292;29;20071;-78
2022/09/14 11:48:10;;;;;;;3.42;2.88;;;;;;;14.55;69.59;98823.75;4861453;29;20041;-79
2022/09/14 11:50:37;;;;;;;5.97;2.90;;;;;;;14.88;69.38;98811.97;4862372;29;20401;-77